Time;durP1;ratioP1;P1;durP2;ratioP2;P2;SDS_P1;SDS_P2;PMS_P1;PMS_P2;Temp;Humidity;BMP_temperature;BMP_pressure;BME280_temperature;BME280_humidity;BME280_pressure;Samples;Min_cycle;Max_cycle;Signal;HPM_P1;HPM_P2
2023/11/24 00:06:21;;;;;;;21.67;10.57;;;;;;;8.05;100.00;98638.25;31091353;28;20172;-79
2023/11/24 00:21:24;;;;;;;24.80;11.77;;;;;;;8.14;100.00;98651.09;31081041;28;20565;-80
2023/11/24 00:36:28;;;;;;;23.63;12.30;;;;;;;8.44;100.00;98612.66;31103447;28;20056;-78
2023/11/24 00:51:30;;;;;;;19.37;8.37;;;;;;;8.65;100.00;98591.44;31085844;28;20046;-76
2023/11/24 01:06:32;;;;;;;23.10;10.47;;;;;;;8.36;100.00;98567.34;31073507;28;20131;-79
2023/11/24 01:21:37;;;;;;;23.50;10.40;;;;;;;8.74;100.00;98526.59;31082008;28;20050;-79
2023/11/24 01:36:39;;;;;;;19.83;9.40;;;;;;;8.66;100.00;98498.28;31071476;28;20050;-80
2023/11/24 01:51:42;;;;;;;26.20;12.67;;;;;;;8.85;100.00;98483.63;31130040;28;20049;-79
2023/11/24 02:06:44;;;;;;;17.47;9.10;;;;;;;8.78;100.00;98470.38;31102494;28;20054;-81
2023/11/24 02:21:46;;;;;;;20.77;9.60;;;;;;;8.29;100.00;98440.50;31083092;28;20062;-80
2023/11/24 02:36:48;;;;;;;21.73;9.67;;;;;;;8.36;100.00;98430.22;31080156;28;20050;-79
2023/11/24 02:51:50;;;;;;;24.10;10.77;;;;;;;8.28;100.00;98401.16;31062541;28;20054;-79
2023/11/24 03:06:53;;;;;;;24.50;10.73;;;;;;;8.38;100.00;98403.50;31057849;28;20495;-80
2023/11/24 03:21:55;;;;;;;23.47;10.20;;;;;;;8.51;100.00;98387.16;31057534;28;20050;-76
2023/11/24 03:36:57;;;;;;;19.47;10.17;;;;;;;8.70;100.00;98369.81;31030435;28;20045;-75
2023/11/24 03:51:59;;;;;;;23.07;10.63;;;;;;;8.80;100.00;98341.56;31054599;28;20052;-77
2023/11/24 04:07:02;;;;;;;20.53;9.07;;;;;;;9.03;100.00;98348.34;31065507;28;20050;-75
2023/11/24 04:22:04;;;;;;;19.53;8.60;;;;;;;8.95;100.00;98344.44;31048850;28;20116;-76
2023/11/24 04:37:06;;;;;;;27.30;10.37;;;;;;;8.74;100.00;98331.78;31065562;28;20168;-77
2023/11/24 04:52:09;;;;;;;23.20;8.57;;;;;;;8.55;100.00;98318.22;31052363;28;20491;-80
2023/11/24 05:07:11;;;;;;;22.17;10.33;;;;;;;8.36;100.00;98302.38;31063353;28;20062;-80
2023/11/24 05:22:13;;;;;;;20.77;10.10;;;;;;;8.39;100.00;98275.22;31061330;28;20054;-80
2023/11/24 05:37:15;;;;;;;19.30;8.43;;;;;;;8.33;100.00;98266.19;31096034;28;20064;-81
2023/11/24 05:52:18;;;;;;;19.53;10.67;;;;;;;8.54;100.00;98232.88;31059393;28;20049;-76
2023/11/24 06:07:20;;;;;;;19.40;9.03;;;;;;;9.04;100.00;98203.69;31062559;28;20054;-76
2023/11/24 06:22:22;;;;;;;21.33;10.67;;;;;;;9.82;100.00;98178.50;31057668;28;20062;-80
2023/11/24 06:37:24;;;;;;;23.83;11.80;;;;;;;10.32;100.00;98186.97;31065340;28;20052;-80
2023/11/24 06:52:27;;;;;;;27.63;10.67;;;;;;;11.19;100.00;98218.22;31043869;28;20088;-78
2023/11/24 07:07:28;;;;;;;23.50;10.57;;;;;;;10.09;100.00;98217.53;31093178;28;20089;-77
2023/11/24 07:22:30;;;;;;;25.47;11.63;;;;;;;12.24;100.00;98206.78;31064699;28;20046;-77
2023/11/24 07:37:32;;;;;;;18.73;9.07;;;;;;;15.36;91.01;98194.56;31066623;28;20089;-77
2023/11/24 07:52:35;;;;;;;16.83;8.53;;;;;;;15.72;78.02;98192.88;31033856;28;20050;-76
2023/11/24 08:07:38;;;;;;;19.80;8.73;;;;;;;16.55;75.50;98145.31;31043293;28;20504;-74
2023/11/24 08:22:40;;;;;;;20.20;10.00;;;;;;;13.85;83.39;98136.75;31070389;28;20487;-76
2023/11/24 08:37:43;;;;;;;20.80;9.57;;;;;;;13.85;84.12;98134.03;31065001;28;20511;-76
2023/11/24 08:52:48;;;;;;;14.33;7.80;;;;;;;12.56;92.21;98099.53;31096935;28;20472;-78
2023/11/24 09:07:50;;;;;;;19.93;9.47;;;;;;;12.94;92.26;98073.16;31070436;28;20045;-78
2023/11/24 09:22:53;;;;;;;12.07;6.63;;;;;;;12.03;96.63;98045.56;31099727;28;20061;-80
2023/11/24 09:37:56;;;;;;;20.40;10.43;;;;;;;11.61;100.00;98045.97;31183502;28;20046;-82
2023/11/24 09:53:01;;;;;;;16.93;8.40;;;;;;;11.74;100.00;98010.31;31182443;28;20046;-82
2023/11/24 10:08:04;;;;;;;17.33;7.37;;;;;;;11.65;100.00;98037.63;31156630;28;20458;-84
2023/11/24 10:23:07;;;;;;;16.83;8.33;;;;;;;12.13;100.00;98036.00;31093292;28;20128;-79
2023/11/24 10:38:10;;;;;;;13.47;6.73;;;;;;;12.10;100.00;98049.81;31073912;28;20482;-82
2023/11/24 10:53:27;;;;;;;19.90;8.20;;;;;;;12.11;100.00;98056.75;31095821;28;20558;-80
2023/11/24 11:08:55;;;;;;;15.23;7.90;;;;;;;12.11;100.00;98048.59;31038228;28;20819;-78
2023/11/24 11:24:03;;;;;;;13.37;6.93;;;;;;;12.22;100.00;98037.84;31068163;28;20046;-81
2023/11/24 11:39:07;;;;;;;18.17;7.47;;;;;;;11.98;100.00;98023.72;31074161;28;20061;-80
2023/11/24 11:54:09;;;;;;;13.43;7.53;;;;;;;11.86;100.00;98039.91;31089702;28;20054;-80
2023/11/24 12:09:18;;;;;;;14.57;8.07;;;;;;;12.13;100.00;98068.66;31085828;28;20080;-79
2023/11/24 12:24:22;;;;;;;16.30;7.30;;;;;;;12.10;100.00;98052.53;31081173;28;20078;-79
2023/11/24 12:39:30;;;;;;;14.93;7.43;;;;;;;12.03;100.00;98063.84;31104600;28;20535;-80
2023/11/24 12:54:32;;;;;;;16.27;8.73;;;;;;;11.90;100.00;98066.88;31076827;28;20054;-80
2023/11/24 13:09:35;;;;;;;15.50;7.50;;;;;;;11.69;100.00;98085.13;31065372;28;20057;-80
2023/11/24 13:24:37;;;;;;;19.73;8.40;;;;;;;11.67;100.00;98086.81;31100169;28;20046;-79
2023/11/24 13:39:39;;;;;;;15.87;7.50;;;;;;;11.48;100.00;98108.06;31065142;28;20050;-84
2023/11/24 13:54:42;;;;;;;12.77;6.90;;;;;;;11.44;100.00;98102.06;31072357;28;20053;-82
2023/11/24 14:09:44;;;;;;;13.87;6.90;;;;;;;11.19;100.00;98125.88;31043175;28;20069;-81
2023/11/24 14:24:50;;;;;;;11.47;6.50;;;;;;;11.40;100.00;98118.56;31085736;28;20082;-80
2023/11/24 14:39:52;;;;;;;11.07;6.57;;;;;;;11.17;100.00;98120.19;31075984;28;20049;-80
2023/11/24 14:54:55;;;;;;;12.80;6.13;;;;;;;10.99;100.00;98128.53;31084121;28;20129;-80
2023/11/24 15:09:58;;;;;;;11.33;5.97;;;;;;;11.09;100.00;98151.66;31105914;28;20092;-79
2023/11/24 15:25:02;;;;;;;11.67;5.60;;;;;;;11.01;100.00;98152.50;31072341;28;20049;-78
2023/11/24 15:40:05;;;;;;;12.00;5.57;;;;;;;11.00;100.00;98154.47;31078521;28;20046;-81
2023/11/24 15:55:08;;;;;;;11.40;5.27;;;;;;;11.05;100.00;98174.78;31055686;28;20530;-80
2023/11/24 16:10:17;;;;;;;10.23;4.83;;;;;;;11.09;100.00;98203.25;31075408;28;20085;-79
2023/11/24 16:25:19;;;;;;;14.20;6.17;;;;;;;11.11;100.00;98214.38;31058865;28;20516;-78
2023/11/24 16:40:21;;;;;;;8.73;5.63;;;;;;;10.95;100.00;98220.25;31072808;28;20052;-80
2023/11/24 16:55:24;;;;;;;9.37;5.33;;;;;;;11.22;100.00;98211.88;31079603;28;20054;-81
2023/11/24 17:10:26;;;;;;;10.73;4.63;;;;;;;11.40;100.00;98218.31;31066090;28;20062;-81
2023/11/24 17:25:28;;;;;;;8.63;4.40;;;;;;;11.41;100.00;98223.28;31094722;28;20062;-78
2023/11/24 17:40:38;;;;;;;8.73;3.83;;;;;;;11.36;100.00;98247.63;31105024;28;20104;-85
2023/11/24 17:55:40;;;;;;;10.07;5.93;;;;;;;11.28;100.00;98247.28;31070349;28;20046;-82
2023/11/24 18:10:45;;;;;;;7.10;4.13;;;;;;;11.17;100.00;98241.63;31067197;28;20670;-78
2023/11/24 18:25:47;;;;;;;8.67;3.63;;;;;;;11.17;100.00;98261.41;31073031;28;20578;-77
2023/11/24 18:40:49;;;;;;;6.67;3.63;;;;;;;11.33;100.00;98264.91;31105415;28;20045;-79
2023/11/24 18:55:51;;;;;;;5.70;3.57;;;;;;;11.38;100.00;98284.00;31072459;28;20046;-79
2023/11/24 19:10:53;;;;;;;11.00;4.10;;;;;;;11.43;100.00;98280.63;31073411;28;20092;-80
2023/11/24 19:25:55;;;;;;;7.10;3.50;;;;;;;11.52;100.00;98298.81;31059850;28;20158;-79
2023/11/24 19:40:57;;;;;;;7.33;3.60;;;;;;;11.31;100.00;98310.78;31068640;28;20116;-77
2023/11/24 19:56:02;;;;;;;7.50;3.80;;;;;;;11.17;100.00;98307.56;31034583;28;20073;-79
2023/11/24 20:11:04;;;;;;;10.20;5.90;;;;;;;11.08;100.00;98326.66;31053470;28;20104;-79
2023/11/24 20:26:06;;;;;;;8.40;5.23;;;;;;;11.42;100.00;98316.41;31015028;28;20077;-80
2023/11/24 20:41:08;;;;;;;10.97;5.43;;;;;;;11.35;100.00;98314.81;31123427;28;20056;-78
2023/11/24 20:56:10;;;;;;;7.47;4.17;;;;;;;11.20;100.00;98350.09;31092780;28;20050;-79
2023/11/24 21:11:13;;;;;;;10.43;4.27;;;;;;;11.35;100.00;98350.13;31087769;28;20061;-79
2023/11/24 21:26:20;;;;;;;7.93;3.83;;;;;;;11.32;100.00;98383.66;31090132;28;20065;-80
2023/11/24 21:41:24;;;;;;;5.63;3.40;;;;;;;11.04;100.00;98402.13;31109169;28;20053;-80
2023/11/24 21:56:28;;;;;;;6.80;3.93;;;;;;;11.41;100.00;98388.25;31096687;28;20117;-80
2023/11/24 22:11:32;;;;;;;7.30;3.90;;;;;;;11.45;100.00;98407.84;31082957;28;20415;-78
2023/11/24 22:26:34;;;;;;;7.60;4.60;;;;;;;11.47;100.00;98421.75;31063870;28;20092;-80
2023/11/24 22:41:37;;;;;;;11.53;5.97;;;;;;;11.44;100.00;98411.78;31065134;28;20061;-79
2023/11/24 22:56:39;;;;;;;7.97;4.93;;;;;;;11.33;100.00;98419.75;31072755;28;20050;-78
2023/11/24 23:11:41;;;;;;;7.77;4.00;;;;;;;11.01;100.00;98435.63;31093269;28;20156;-79
2023/11/24 23:26:43;;;;;;;8.20;4.53;;;;;;;11.24;100.00;98436.84;31082683;28;20058;-79
2023/11/24 23:41:45;;;;;;;6.63;3.87;;;;;;;11.16;100.00;98431.00;31095049;28;20054;-79
2023/11/24 23:56:47;;;;;;;9.03;4.30;;;;;;;11.01;100.00;98468.19;31079548;28;20046;-80
